createdAt,value
2023-01-17T00:00:48.884Z,93147.38
2023-01-17T00:01:50.516Z,93152.00
2023-01-17T00:02:52.324Z,93149.63
2023-01-17T00:04:12.634Z,93155.34
2023-01-17T00:05:33.019Z,93160.16
2023-01-17T00:06:53.323Z,93158.50
2023-01-17T00:08:13.302Z,93157.50
2023-01-17T00:09:33.780Z,93151.41
2023-01-17T00:10:40.447Z,93163.22
2023-01-17T00:11:42.243Z,93165.59
2023-01-17T00:12:49.339Z,93164.78
2023-01-17T00:13:51.096Z,93165.34
2023-01-17T00:14:54.669Z,93166.78
2023-01-17T00:15:56.316Z,93164.09
2023-01-17T00:16:58.081Z,93164.09
2023-01-17T00:17:59.854Z,93170.97
2023-01-17T00:19:20.140Z,93160.63
2023-01-17T00:20:43.075Z,93163.44
2023-01-17T00:22:03.462Z,93169.72
2023-01-17T00:23:32.998Z,93174.22
2023-01-17T00:24:53.260Z,93171.31
2023-01-17T00:26:04.792Z,93169.84
2023-01-17T00:27:12.430Z,93164.59
2023-01-17T00:28:14.236Z,93169.72
2023-01-17T00:29:15.818Z,93169.19
2023-01-17T00:30:17.457Z,93181.06
2023-01-17T00:31:19.082Z,93182.97
2023-01-17T00:32:20.674Z,93175.34
2023-01-17T00:33:22.887Z,93172.44
2023-01-17T00:34:24.473Z,93175.13
2023-01-17T00:35:27.436Z,93176.00
2023-01-17T00:36:28.975Z,93182.63
2023-01-17T00:37:30.596Z,93184.34
2023-01-17T00:38:33.806Z,93182.06
2023-01-17T00:39:35.358Z,93186.00
2023-01-17T00:40:38.710Z,93184.88
2023-01-17T00:41:40.270Z,93188.81
2023-01-17T00:42:41.794Z,93186.47
2023-01-17T00:44:02.166Z,93185.66
2023-01-17T00:45:23.357Z,93174.78
2023-01-17T00:46:43.712Z,93194.66
2023-01-17T00:48:04.981Z,93191.84
2023-01-17T00:49:25.335Z,93184.44
2023-01-17T00:50:45.481Z,93183.53
2023-01-17T00:52:05.670Z,93186.69
2023-01-17T00:53:25.868Z,93186.56
2023-01-17T00:54:46.096Z,93184.78
2023-01-17T00:56:06.427Z,93188.91
2023-01-17T00:57:27.217Z,93185.34
2023-01-17T00:58:47.661Z,93190.38
2023-01-17T01:00:07.968Z,93186.66
2023-01-17T01:01:28.420Z,93186.22
2023-01-17T01:02:49.019Z,93189.25
2023-01-17T01:04:09.287Z,93188.22
2023-01-17T01:05:30.069Z,93193.72
2023-01-17T01:06:50.256Z,93190.38
2023-01-17T01:08:10.589Z,93190.38
2023-01-17T01:09:30.768Z,93195.75
2023-01-17T01:10:52.128Z,93191.03
2023-01-17T01:12:12.500Z,93193.16
2023-01-17T01:13:32.854Z,93194.19
2023-01-17T01:14:53.022Z,93201.81
2023-01-17T01:16:12.966Z,93203.38
2023-01-17T01:17:33.055Z,93196.09
2023-01-17T01:18:53.221Z,93202.72
2023-01-17T01:20:13.576Z,93201.25
2023-01-17T01:21:33.650Z,93194.78
2023-01-17T01:22:53.715Z,93197.56
2023-01-17T01:24:14.022Z,93200.03
2023-01-17T01:25:35.717Z,93207.09
2023-01-17T01:26:55.936Z,93202.25
2023-01-17T01:28:28.990Z,93205.97
2023-01-17T01:29:48.990Z,93201.38
2023-01-17T01:31:09.264Z,93204.06
2023-01-17T01:32:29.657Z,93201.72
2023-01-17T01:33:31.282Z,93198.47
2023-01-17T01:34:33.030Z,93207.31
2023-01-17T01:35:36.601Z,93198.00
2023-01-17T01:36:38.307Z,93201.50
2023-01-17T01:37:39.975Z,93199.00
2023-01-17T01:38:41.583Z,93197.31
2023-01-17T01:39:43.239Z,93206.50
2023-01-17T01:40:50.432Z,93207.63
2023-01-17T01:41:52.156Z,93205.31
2023-01-17T01:42:55.970Z,93202.03
2023-01-17T01:43:57.608Z,93200.91
2023-01-17T01:44:59.510Z,93200.34
2023-01-17T01:46:01.319Z,93197.31
2023-01-17T01:47:03.018Z,93206.50
2023-01-17T01:48:22.383Z,93205.19
2023-01-17T01:49:25.845Z,93209.66
2023-01-17T01:50:28.856Z,93201.03
2023-01-17T01:51:36.744Z,93195.53
2023-01-17T01:52:43.136Z,93204.38
2023-01-17T01:53:48.054Z,93196.88
2023-01-17T01:54:54.045Z,93196.44
2023-01-17T01:55:55.820Z,93201.59
2023-01-17T01:56:59.070Z,93198.69
2023-01-17T01:58:04.889Z,93198.47
2023-01-17T01:59:08.844Z,93199.81
2023-01-17T02:00:17.526Z,93200.22
2023-01-17T02:01:19.553Z,93199.13
2023-01-17T02:02:21.386Z,93196.44
2023-01-17T02:03:27.316Z,93201.56
2023-01-17T02:04:28.971Z,93206.06
2023-01-17T02:05:31.064Z,93205.16
2023-01-17T02:06:35.680Z,93196.41
2023-01-17T02:07:42.545Z,93208.09
2023-01-17T02:08:44.175Z,93202.47
2023-01-17T02:09:45.789Z,93196.97
2023-01-17T02:10:47.661Z,93208.31
2023-01-17T02:11:49.783Z,93203.50
2023-01-17T02:12:52.913Z,93203.84
2023-01-17T02:13:54.686Z,93213.56
2023-01-17T02:14:56.618Z,93213.34
2023-01-17T02:16:16.132Z,93210.66
2023-01-17T02:17:23.657Z,93204.72
2023-01-17T02:18:34.186Z,93206.72
2023-01-17T02:20:11.278Z,93205.16
2023-01-17T02:21:24.793Z,93202.72
2023-01-17T02:22:41.453Z,93217.63
2023-01-17T02:23:54.896Z,93216.03
2023-01-17T02:25:21.541Z,93216.94
2023-01-17T02:26:35.319Z,93205.84
2023-01-17T02:27:49.026Z,93207.41
2023-01-17T02:29:22.842Z,93213.31
2023-01-17T02:30:39.887Z,93206.38
2023-01-17T02:31:55.407Z,93205.06
2023-01-17T02:33:11.745Z,93203.00
2023-01-17T02:34:19.331Z,93204.81
2023-01-17T02:35:34.155Z,93209.06
2023-01-17T02:36:41.962Z,93208.63
2023-01-17T02:38:23.021Z,93204.47
2023-01-17T02:39:32.924Z,93209.94
2023-01-17T02:40:48.452Z,93221.94
2023-01-17T02:41:54.178Z,93211.06
2023-01-17T02:43:05.469Z,93212.44
2023-01-17T02:44:11.071Z,93216.69
2023-01-17T02:45:19.437Z,93215.03
2023-01-17T02:46:21.018Z,93208.28
2023-01-17T02:47:31.731Z,93207.94
2023-01-17T02:48:35.835Z,93196.50
2023-01-17T02:49:37.523Z,93209.28
2023-01-17T02:50:58.809Z,93208.28
2023-01-17T02:52:18.391Z,93211.75
2023-01-17T02:53:42.306Z,93208.72
2023-01-17T02:55:12.910Z,93218.81
2023-01-17T02:56:38.895Z,93210.53
2023-01-17T02:58:01.973Z,93209.63
2023-01-17T02:59:15.752Z,93214.78
2023-01-17T03:00:50.267Z,93213.69
2023-01-17T03:02:04.441Z,93204.94
2023-01-17T03:03:27.312Z,93208.44
2023-01-17T03:04:42.298Z,93191.59
2023-01-17T03:05:47.328Z,93201.59
2023-01-17T03:06:53.732Z,93200.47
2023-01-17T03:07:56.239Z,93196.22
2023-01-17T03:08:57.939Z,93206.06
2023-01-17T03:10:02.239Z,93210.91
2023-01-17T03:11:03.866Z,93203.97
2023-01-17T03:12:05.954Z,93205.63
2023-01-17T03:13:07.587Z,93205.88
2023-01-17T03:14:09.241Z,93205.28
2023-01-17T03:15:12.966Z,93213.03
2023-01-17T03:16:21.154Z,93210.78
2023-01-17T03:17:24.258Z,93208.09
2023-01-17T03:18:25.999Z,93207.00
2023-01-17T03:19:27.641Z,93201.16
2023-01-17T03:20:29.284Z,93202.16
2023-01-17T03:21:30.984Z,93201.03
2023-01-17T03:22:32.583Z,93209.56
2023-01-17T03:23:34.179Z,93195.19
2023-01-17T03:24:35.739Z,93203.38
2023-01-17T03:25:37.339Z,93204.38
2023-01-17T03:26:39.101Z,93198.88
2023-01-17T03:27:40.696Z,93215.25
2023-01-17T03:28:42.403Z,93215.69
2023-01-17T03:29:44.002Z,93207.59
2023-01-17T03:30:45.674Z,93212.53
2023-01-17T03:31:47.260Z,93206.91
2023-01-17T03:32:49.434Z,93210.03
2023-01-17T03:33:51.123Z,93210.91
2023-01-17T03:34:52.782Z,93211.84
2023-01-17T03:35:57.953Z,93204.75
2023-01-17T03:36:59.586Z,93212.72
2023-01-17T03:38:01.142Z,93215.50
2023-01-17T03:39:02.987Z,93196.81
2023-01-17T03:40:05.063Z,93206.66
2023-01-17T03:41:07.151Z,93213.59
2023-01-17T03:42:08.746Z,93204.06
2023-01-17T03:43:10.363Z,93208.22
2023-01-17T03:44:11.991Z,93207.25
2023-01-17T03:45:13.654Z,93205.53
2023-01-17T03:46:21.126Z,93206.78
2023-01-17T03:47:22.784Z,93218.19
2023-01-17T03:48:24.436Z,93203.06
2023-01-17T03:49:26.525Z,93205.34
2023-01-17T03:50:28.184Z,93209.47
2023-01-17T03:51:29.769Z,93196.59
2023-01-17T03:52:31.402Z,93199.81
2023-01-17T03:53:32.980Z,93202.50
2023-01-17T03:54:34.668Z,93200.75
2023-01-17T03:55:36.254Z,93197.28
2023-01-17T03:56:37.875Z,93196.59
2023-01-17T03:57:39.467Z,93198.84
2023-01-17T03:58:41.266Z,93203.06
2023-01-17T03:59:42.887Z,93201.19
2023-01-17T04:00:44.469Z,93204.56
2023-01-17T04:01:46.202Z,93198.38
2023-01-17T04:02:47.928Z,93191.09
2023-01-17T04:03:49.528Z,93206.56
2023-01-17T04:04:51.344Z,93198.16
2023-01-17T04:05:52.935Z,93207.94
2023-01-17T04:06:54.670Z,93194.34
2023-01-17T04:07:56.284Z,93196.59
2023-01-17T04:08:57.882Z,93205.34
2023-01-17T04:09:59.508Z,93196.91
2023-01-17T04:11:01.112Z,93195.47
2023-01-17T04:12:03.120Z,93196.06
2023-01-17T04:13:04.804Z,93201.53
2023-01-17T04:14:06.414Z,93196.63
2023-01-17T04:15:08.236Z,93190.91
2023-01-17T04:16:14.450Z,93200.97
2023-01-17T04:17:17.522Z,93199.88
2023-01-17T04:18:20.582Z,93196.84
2023-01-17T04:19:22.344Z,93199.53
2023-01-17T04:20:32.503Z,93189.56
2023-01-17T04:21:34.051Z,93195.72
2023-01-17T04:22:35.657Z,93182.25
2023-01-17T04:23:37.364Z,93187.91
2023-01-17T04:24:39.007Z,93194.72
2023-01-17T04:25:40.741Z,93195.50
2023-01-17T04:26:42.363Z,93196.06
2023-01-17T04:27:44.013Z,93194.22
2023-01-17T04:28:45.609Z,93196.47
2023-01-17T04:29:47.215Z,93189.41
2023-01-17T04:30:48.902Z,93197.28
2023-01-17T04:31:50.508Z,93190.75
2023-01-17T04:32:52.364Z,93210.81
2023-01-17T04:33:53.997Z,93206.66
2023-01-17T04:34:55.558Z,93195.66
2023-01-17T04:35:57.220Z,93203.72
2023-01-17T04:36:58.908Z,93201.03
2023-01-17T04:38:00.838Z,93206.88
2023-01-17T04:39:02.540Z,93205.16
2023-01-17T04:40:05.353Z,93207.53
2023-01-17T04:41:06.971Z,93198.81
2023-01-17T04:42:08.543Z,93199.59
2023-01-17T04:43:10.195Z,93201.50
2023-01-17T04:44:11.811Z,93205.75
2023-01-17T04:45:14.031Z,93189.50
2023-01-17T04:46:15.696Z,93204.28
2023-01-17T04:47:17.364Z,93201.50
2023-01-17T04:48:18.962Z,93202.38
2023-01-17T04:49:20.536Z,93204.34
2023-01-17T04:50:22.171Z,93208.47
2023-01-17T04:51:23.819Z,93198.97
2023-01-17T04:52:25.561Z,93203.34
2023-01-17T04:53:27.281Z,93206.25
2023-01-17T04:54:28.924Z,93204.53
2023-01-17T04:55:31.177Z,93203.31
2023-01-17T04:56:32.761Z,93202.97
2023-01-17T04:57:34.418Z,93199.50
2023-01-17T04:58:35.994Z,93199.84
2023-01-17T04:59:37.565Z,93200.50
2023-01-17T05:00:39.048Z,93203.84
2023-01-17T05:01:40.703Z,93202.72
2023-01-17T05:02:42.322Z,93211.03
2023-01-17T05:03:46.929Z,93208.34
2023-01-17T05:04:48.531Z,93208.81
2023-01-17T05:05:50.104Z,93206.81
2023-01-17T05:06:51.747Z,93212.34
2023-01-17T05:07:57.740Z,93217.47
2023-01-17T05:08:59.536Z,93211.72
2023-01-17T05:10:01.167Z,93206.25
2023-01-17T05:11:02.791Z,93213.06
2023-01-17T05:12:04.618Z,93211.03
2023-01-17T05:13:06.335Z,93206.13
2023-01-17T05:14:09.165Z,93210.59
2023-01-17T05:15:10.910Z,93210.44
2023-01-17T05:16:12.670Z,93212.19
2023-01-17T05:17:14.343Z,93209.41
2023-01-17T05:18:17.245Z,93209.50
2023-01-17T05:19:20.926Z,93203.44
2023-01-17T05:20:24.040Z,93218.69
2023-01-17T05:21:25.719Z,93215.75
2023-01-17T05:22:27.302Z,93221.44
2023-01-17T05:23:28.878Z,93228.28
2023-01-17T05:24:31.319Z,93223.44
2023-01-17T05:25:33.238Z,93228.88
2023-01-17T05:26:34.914Z,93222.56
2023-01-17T05:27:37.229Z,93228.72
2023-01-17T05:28:38.840Z,93232.09
2023-01-17T05:29:40.949Z,93226.66
2023-01-17T05:30:42.660Z,93214.78
2023-01-17T05:31:44.995Z,93224.13
2023-01-17T05:32:51.425Z,93225.34
2023-01-17T05:33:53.076Z,93216.38
2023-01-17T05:34:54.857Z,93219.91
2023-01-17T05:35:56.866Z,93224.63
2023-01-17T05:36:58.715Z,93228.41
2023-01-17T05:38:00.683Z,93218.91
2023-01-17T05:39:02.350Z,93224.19
2023-01-17T05:40:06.152Z,93229.88
2023-01-17T05:41:07.716Z,93220.19
2023-01-17T05:42:09.324Z,93229.94
2023-01-17T05:43:10.900Z,93218.28
2023-01-17T05:44:12.537Z,93208.38
2023-01-17T05:45:16.956Z,93222.66
2023-01-17T05:46:18.625Z,93210.75
2023-01-17T05:47:20.256Z,93219.38
2023-01-17T05:48:21.830Z,93225.53
2023-01-17T05:49:23.435Z,93227.50
2023-01-17T05:50:30.003Z,93222.31
2023-01-17T05:51:31.631Z,93225.66
2023-01-17T05:52:33.258Z,93234.00
2023-01-17T05:53:34.897Z,93226.13
2023-01-17T05:54:36.467Z,93224.84
2023-01-17T05:55:38.901Z,93228.66
2023-01-17T05:56:40.549Z,93226.31
2023-01-17T05:57:42.151Z,93224.38
2023-01-17T05:58:43.761Z,93220.75
2023-01-17T05:59:45.316Z,93229.38
2023-01-17T06:00:47.585Z,93225.00
2023-01-17T06:01:49.285Z,93228.28
2023-01-17T06:02:53.637Z,93224.31
2023-01-17T06:03:55.307Z,93216.03
2023-01-17T06:04:56.956Z,93212.72
2023-01-17T06:05:58.524Z,93221.31
2023-01-17T06:07:00.152Z,93219.25
2023-01-17T06:08:01.698Z,93222.41
2023-01-17T06:09:03.331Z,93208.19
2023-01-17T06:10:05.659Z,93223.06
2023-01-17T06:11:07.347Z,93216.25
2023-01-17T06:12:08.988Z,93225.16
2023-01-17T06:13:15.252Z,93232.59
2023-01-17T06:14:16.909Z,93230.69
2023-01-17T06:15:18.689Z,93225.06
2023-01-17T06:16:20.384Z,93231.44
2023-01-17T06:17:22.021Z,93216.31
2023-01-17T06:18:23.579Z,93212.97
2023-01-17T06:19:25.203Z,93219.63
2023-01-17T06:20:27.345Z,93223.63
2023-01-17T06:21:29.730Z,93229.69
2023-01-17T06:22:31.370Z,93220.59
2023-01-17T06:23:32.970Z,93223.75
2023-01-17T06:24:34.649Z,93224.00
2023-01-17T06:25:43.832Z,93220.06
2023-01-17T06:26:45.411Z,93215.97
2023-01-17T06:27:47.056Z,93218.50
2023-01-17T06:28:48.720Z,93218.16
2023-01-17T06:29:50.349Z,93219.59
2023-01-17T06:30:51.980Z,93220.59
2023-01-17T06:31:53.586Z,93217.06
2023-01-17T06:32:55.638Z,93218.22
2023-01-17T06:33:57.231Z,93219.00
2023-01-17T06:34:58.789Z,93210.69
2023-01-17T06:36:00.403Z,93224.00
2023-01-17T06:37:01.994Z,93213.31
2023-01-17T06:38:03.955Z,93218.78
2023-01-17T06:39:05.617Z,93214.69
2023-01-17T06:40:08.027Z,93215.94
2023-01-17T06:41:09.732Z,93227.31
2023-01-17T06:42:11.307Z,93226.88
2023-01-17T06:43:13.124Z,93215.84
2023-01-17T06:44:14.743Z,93221.34
2023-01-17T06:45:17.743Z,93217.06
2023-01-17T06:46:19.546Z,93227.00
2023-01-17T06:47:21.167Z,93221.50
2023-01-17T06:48:22.823Z,93215.78
2023-01-17T06:49:24.388Z,93214.22
2023-01-17T06:50:26.109Z,93217.34
2023-01-17T06:51:27.929Z,93218.38
2023-01-17T06:52:29.484Z,93219.66
2023-01-17T06:53:31.113Z,93214.00
2023-01-17T06:54:32.725Z,93213.06
2023-01-17T06:55:35.215Z,93211.66
2023-01-17T06:56:36.954Z,93207.63
2023-01-17T06:57:38.557Z,93206.47
2023-01-17T06:58:40.292Z,93211.19
2023-01-17T06:59:41.872Z,93211.06
2023-01-17T07:00:44.618Z,93213.28
2023-01-17T07:01:46.318Z,93206.06
2023-01-17T07:02:51.443Z,93210.19
2023-01-17T07:03:53.178Z,93211.31
2023-01-17T07:04:54.797Z,93217.66
2023-01-17T07:05:56.397Z,93222.78
2023-01-17T07:06:58.003Z,93215.25
2023-01-17T07:07:59.680Z,93214.88
2023-01-17T07:09:01.282Z,93221.50
2023-01-17T07:10:03.571Z,93215.75
2023-01-17T07:11:07.872Z,93209.31
2023-01-17T07:12:09.696Z,93214.69
2023-01-17T07:13:12.182Z,93213.63
2023-01-17T07:14:14.536Z,93228.47
2023-01-17T07:15:17.406Z,93219.19
2023-01-17T07:16:19.046Z,93214.66
2023-01-17T07:17:20.624Z,93216.81
2023-01-17T07:18:25.122Z,93218.25
2023-01-17T07:19:26.708Z,93223.00
2023-01-17T07:20:28.346Z,93216.69
2023-01-17T07:21:29.923Z,93223.91
2023-01-17T07:22:31.505Z,93213.16
2023-01-17T07:23:33.089Z,93219.28
2023-01-17T07:24:36.379Z,93218.25
2023-01-17T07:25:38.010Z,93223.59
2023-01-17T07:26:40.238Z,93229.16
2023-01-17T07:27:41.793Z,93223.31
2023-01-17T07:28:43.660Z,93221.56
2023-01-17T07:29:45.251Z,93213.06
2023-01-17T07:30:46.979Z,93217.41
2023-01-17T07:31:48.792Z,93209.06
2023-01-17T07:32:52.277Z,93219.03
2023-01-17T07:33:53.925Z,93212.88
2023-01-17T07:34:57.621Z,93218.72
2023-01-17T07:36:03.038Z,93199.91
2023-01-17T07:37:04.618Z,93210.16
2023-01-17T07:38:11.363Z,93210.78
2023-01-17T07:39:13.003Z,93197.38
2023-01-17T07:40:15.542Z,93204.53
2023-01-17T07:41:17.165Z,93199.16
2023-01-17T07:42:18.778Z,93198.75
2023-01-17T07:43:20.377Z,93194.97
2023-01-17T07:44:22.726Z,93189.50
2023-01-17T07:45:24.360Z,93191.03
2023-01-17T07:46:26.021Z,93181.03
2023-01-17T07:47:27.741Z,93190.03
2023-01-17T07:48:30.818Z,93179.19
2023-01-17T07:49:32.422Z,93186.34
2023-01-17T07:50:34.164Z,93175.81
2023-01-17T07:51:35.804Z,93185.50
2023-01-17T07:52:37.419Z,93179.47
2023-01-17T07:53:39.030Z,93177.72
2023-01-17T07:54:41.217Z,93187.72
2023-01-17T07:55:42.817Z,93174.00
2023-01-17T07:56:47.095Z,93176.91
2023-01-17T07:57:50.557Z,93186.22
2023-01-17T07:58:52.149Z,93185.44
2023-01-17T07:59:53.816Z,93185.41
2023-01-17T08:01:04.598Z,93173.31
2023-01-17T08:02:06.379Z,93168.81
2023-01-17T08:03:12.084Z,93180.50
2023-01-17T08:04:14.224Z,93176.31
2023-01-17T08:05:16.639Z,93174.16
2023-01-17T08:06:24.112Z,93181.56
2023-01-17T08:07:25.683Z,93175.78
2023-01-17T08:08:28.127Z,93179.94
2023-01-17T08:09:29.740Z,93179.50
2023-01-17T08:10:31.354Z,93174.78
2023-01-17T08:11:32.896Z,93175.22
2023-01-17T08:12:36.003Z,93173.31
2023-01-17T08:13:37.639Z,93178.31
2023-01-17T08:14:39.242Z,93180.38
2023-01-17T08:15:41.101Z,93175.38
2023-01-17T08:16:42.837Z,93171.94
2023-01-17T08:17:54.128Z,93173.09
2023-01-17T08:18:56.197Z,93168.22
2023-01-17T08:19:57.744Z,93168.72
2023-01-17T08:20:59.383Z,93166.97
2023-01-17T08:22:00.981Z,93166.38
2023-01-17T08:23:02.587Z,93169.06
2023-01-17T08:24:04.475Z,93172.53
2023-01-17T08:25:06.332Z,93171.22
2023-01-17T08:26:07.923Z,93162.78
2023-01-17T08:27:10.026Z,93168.59
2023-01-17T08:28:12.233Z,93161.22
2023-01-17T08:29:14.018Z,93160.34
2023-01-17T08:30:15.886Z,93165.72
2023-01-17T08:31:17.792Z,93162.78
2023-01-17T08:32:21.328Z,93155.19
2023-01-17T08:33:22.955Z,93155.50
2023-01-17T08:34:24.567Z,93147.56
2023-01-17T08:35:27.785Z,93134.53
2023-01-17T08:36:31.284Z,93148.88
2023-01-17T08:37:33.194Z,93152.13
2023-01-17T08:38:34.815Z,93161.91
2023-01-17T08:39:36.474Z,93165.25
2023-01-17T08:40:38.224Z,93169.84
2023-01-17T08:41:40.011Z,93170.50
2023-01-17T08:42:41.701Z,93177.78
2023-01-17T08:43:43.251Z,93171.72
2023-01-17T08:44:44.776Z,93175.66
2023-01-17T08:45:48.210Z,93174.38
2023-01-17T08:46:49.998Z,93178.84
2023-01-17T08:47:52.017Z,93182.88
2023-01-17T08:48:58.972Z,93183.88
2023-01-17T08:50:01.048Z,93187.22
2023-01-17T08:51:03.147Z,93193.00
2023-01-17T08:52:05.442Z,93186.19
2023-01-17T08:53:07.062Z,93185.72
2023-01-17T08:54:12.824Z,93189.09
2023-01-17T08:55:14.815Z,93180.94
2023-01-17T08:56:16.462Z,93171.91
2023-01-17T08:57:18.105Z,93176.88
2023-01-17T08:58:19.761Z,93176.56
2023-01-17T08:59:21.727Z,93176.72
2023-01-17T09:00:23.298Z,93177.75
2023-01-17T09:01:25.061Z,93173.41
2023-01-17T09:02:26.970Z,93178.72
2023-01-17T09:03:28.879Z,93166.25
2023-01-17T09:04:30.550Z,93170.09
2023-01-17T09:05:32.207Z,93175.47
2023-01-17T09:06:37.008Z,93170.38
2023-01-17T09:07:38.640Z,93178.56
2023-01-17T09:08:40.712Z,93171.69
2023-01-17T09:09:42.375Z,93178.94
2023-01-17T09:10:43.984Z,93177.44
2023-01-17T09:11:45.724Z,93179.78
2023-01-17T09:12:47.353Z,93178.09
2023-01-17T09:13:49.007Z,93172.47
2023-01-17T09:14:50.648Z,93167.84
2023-01-17T09:15:56.575Z,93178.03
2023-01-17T09:16:58.362Z,93177.06
2023-01-17T09:18:01.338Z,93179.53
2023-01-17T09:19:02.967Z,93172.66
2023-01-17T09:20:04.867Z,93173.50
2023-01-17T09:21:14.949Z,93174.69
2023-01-17T09:22:16.524Z,93171.38
2023-01-17T09:23:18.123Z,93175.81
2023-01-17T09:24:20.079Z,93178.13
2023-01-17T09:25:22.298Z,93172.97
2023-01-17T09:26:29.381Z,93170.56
2023-01-17T09:27:31.004Z,93166.66
2023-01-17T09:28:40.915Z,93162.25
2023-01-17T09:29:42.633Z,93162.53
2023-01-17T09:30:44.302Z,93154.84
2023-01-17T09:31:48.118Z,93153.28
2023-01-17T09:32:54.038Z,93160.78
2023-01-17T09:33:56.986Z,93162.19
2023-01-17T09:35:01.041Z,93167.56
2023-01-17T09:36:04.462Z,93160.28
2023-01-17T09:37:07.585Z,93161.09
2023-01-17T09:38:09.473Z,93148.72
2023-01-17T09:39:11.593Z,93146.28
2023-01-17T09:40:21.100Z,93147.09
2023-01-17T09:41:37.553Z,93140.25
2023-01-17T09:42:40.338Z,93136.22
2023-01-17T09:43:47.118Z,93133.72
2023-01-17T09:44:53.490Z,93128.47
2023-01-17T09:45:55.183Z,93130.78
2023-01-17T09:47:02.008Z,93121.34
2023-01-17T09:48:07.913Z,93106.59
2023-01-17T09:49:19.383Z,93117.47
2023-01-17T09:50:45.964Z,93111.66
2023-01-17T09:51:47.684Z,93117.03
2023-01-17T09:52:49.400Z,93115.94
2023-01-17T09:53:52.782Z,93108.44
2023-01-17T09:54:54.407Z,93103.25
2023-01-17T09:56:04.829Z,93106.38
2023-01-17T09:57:12.234Z,93100.53
2023-01-17T09:58:24.061Z,93100.66
2023-01-17T09:59:45.615Z,93106.59
2023-01-17T10:01:09.105Z,93093.66
2023-01-17T10:02:26.713Z,93087.72
2023-01-17T10:03:43.693Z,93081.94
2023-01-17T10:05:04.099Z,93088.38
2023-01-17T10:06:11.704Z,93079.25
2023-01-17T10:07:43.966Z,93079.97
2023-01-17T10:09:18.148Z,93083.19
2023-01-17T10:10:34.823Z,93077.34
2023-01-17T10:11:52.104Z,93082.69
2023-01-17T10:12:58.431Z,93072.03
2023-01-17T10:14:11.311Z,93071.81
2023-01-17T10:15:15.661Z,93075.47
2023-01-17T10:16:36.790Z,93069.69
2023-01-17T10:18:04.958Z,93070.19
2023-01-17T10:19:56.034Z,93069.63
2023-01-17T10:21:33.739Z,93064.84
2023-01-17T10:22:38.151Z,93061.53
2023-01-17T10:23:54.867Z,93069.63
2023-01-17T10:25:28.898Z,93071.41
2023-01-17T10:26:31.686Z,93057.06
2023-01-17T10:27:57.544Z,93044.06
2023-01-17T10:29:04.925Z,93040.06
2023-01-17T10:30:34.512Z,93044.94
2023-01-17T10:31:41.669Z,93042.31
2023-01-17T10:32:48.346Z,93048.19
2023-01-17T10:33:55.570Z,93051.13
2023-01-17T10:35:02.193Z,93046.78
2023-01-17T10:36:10.147Z,93050.13
2023-01-17T10:37:47.002Z,93048.06
2023-01-17T10:39:13.943Z,93049.94
2023-01-17T10:40:50.161Z,93053.56
2023-01-17T10:41:55.981Z,93058.97
2023-01-17T10:43:15.560Z,93057.03
2023-01-17T10:44:23.445Z,93042.53
2023-01-17T10:45:28.749Z,93050.66
2023-01-17T10:46:41.610Z,93038.84
2023-01-17T10:47:48.268Z,93041.03
2023-01-17T10:48:51.850Z,93046.06
2023-01-17T10:49:57.575Z,93041.81
2023-01-17T10:51:35.610Z,93047.22
2023-01-17T10:52:48.155Z,93048.72
2023-01-17T10:54:11.481Z,93038.75
2023-01-17T10:55:32.015Z,93035.38
2023-01-17T10:56:34.624Z,93027.78
2023-01-17T10:57:47.502Z,93031.78
2023-01-17T10:58:50.317Z,93026.03
2023-01-17T10:59:52.397Z,93025.84
2023-01-17T11:01:19.887Z,93021.16
2023-01-17T11:02:25.675Z,93024.53
2023-01-17T11:03:28.578Z,93027.13
2023-01-17T11:04:41.535Z,93031.09
2023-01-17T11:05:43.753Z,93023.22
2023-01-17T11:06:57.914Z,93033.16
2023-01-17T11:08:04.588Z,93027.59
2023-01-17T11:09:10.705Z,93033.00
2023-01-17T11:10:37.959Z,93024.63
2023-01-17T11:11:48.932Z,93017.84
2023-01-17T11:12:50.553Z,93014.03
2023-01-17T11:13:53.629Z,93021.97
2023-01-17T11:15:01.137Z,93022.28
2023-01-17T11:16:10.951Z,93011.09
2023-01-17T11:17:13.582Z,93020.97
2023-01-17T11:18:16.050Z,93018.94
2023-01-17T11:19:26.654Z,93015.81
2023-01-17T11:20:34.532Z,93008.25
2023-01-17T11:21:38.122Z,93012.28
2023-01-17T11:22:39.765Z,93002.47
2023-01-17T11:23:43.934Z,93005.13
2023-01-17T11:24:49.109Z,92999.91
2023-01-17T11:25:58.002Z,92996.13
2023-01-17T11:26:59.752Z,93000.38
2023-01-17T11:28:20.571Z,93004.38
2023-01-17T11:29:37.272Z,93000.41
2023-01-17T11:30:51.080Z,92992.03
2023-01-17T11:31:53.631Z,92997.78
2023-01-17T11:33:06.223Z,92991.94
2023-01-17T11:34:19.271Z,92992.72
2023-01-17T11:35:25.428Z,92980.00
2023-01-17T11:36:30.166Z,92980.78
2023-01-17T11:37:31.889Z,92975.56
2023-01-17T11:38:33.500Z,92974.97
2023-01-17T11:39:35.193Z,92979.28
2023-01-17T11:40:40.038Z,92976.09
2023-01-17T11:41:41.955Z,92974.13
2023-01-17T11:42:43.592Z,92962.56
2023-01-17T11:43:53.893Z,92966.09
2023-01-17T11:44:55.723Z,92976.94
2023-01-17T11:46:15.237Z,92970.47
2023-01-17T11:47:19.246Z,92968.44
2023-01-17T11:48:23.831Z,92969.16
2023-01-17T11:49:26.160Z,92968.28
2023-01-17T11:50:28.024Z,92964.16
2023-01-17T11:51:33.956Z,92959.28
2023-01-17T11:52:39.112Z,92968.56
2023-01-17T11:53:47.052Z,92961.97
2023-01-17T11:54:49.495Z,92955.84
2023-01-17T11:55:57.445Z,92961.59
2023-01-17T11:57:01.988Z,92952.28
2023-01-17T11:58:03.632Z,92961.25
2023-01-17T11:59:21.998Z,92960.88
2023-01-17T12:00:45.999Z,92953.38
2023-01-17T12:02:25.158Z,92957.94
2023-01-17T12:03:45.512Z,92952.13
2023-01-17T12:05:08.820Z,92946.63
2023-01-17T12:06:17.947Z,92955.41
2023-01-17T12:07:28.460Z,92951.31
2023-01-17T12:08:56.085Z,92945.97
2023-01-17T12:10:08.296Z,92943.16
2023-01-17T12:11:22.105Z,92941.66
2023-01-17T12:13:07.366Z,92941.50
2023-01-17T12:14:26.631Z,92936.44
2023-01-17T12:15:34.584Z,92932.41
2023-01-17T12:16:54.396Z,92932.88
2023-01-17T12:18:06.913Z,92935.38
2023-01-17T12:19:26.968Z,92932.13
2023-01-17T12:20:44.515Z,92927.03
2023-01-17T12:22:07.580Z,92923.75
2023-01-17T12:23:42.958Z,92919.06
2023-01-17T12:24:50.426Z,92909.97
2023-01-17T12:26:00.942Z,92904.28
2023-01-17T12:27:16.079Z,92897.94
2023-01-17T12:28:44.658Z,92889.56
2023-01-17T12:30:06.459Z,92885.91
2023-01-17T12:31:14.546Z,92884.16
2023-01-17T12:32:35.750Z,92882.78
2023-01-17T12:33:49.428Z,92874.84
2023-01-17T12:34:57.396Z,92881.75
2023-01-17T12:36:02.378Z,92876.41
2023-01-17T12:37:26.770Z,92872.31
2023-01-17T12:38:40.661Z,92863.63
2023-01-17T12:39:47.858Z,92863.97
2023-01-17T12:41:00.242Z,92865.47
2023-01-17T12:42:24.144Z,92857.13
2023-01-17T12:43:32.844Z,92857.72
2023-01-17T12:44:46.351Z,92859.88
2023-01-17T12:45:48.432Z,92856.34
2023-01-17T12:47:03.753Z,92848.97
2023-01-17T12:48:11.280Z,92846.59
2023-01-17T12:49:34.303Z,92843.56
2023-01-17T12:50:41.913Z,92842.69
2023-01-17T12:51:45.017Z,92839.72
2023-01-17T12:53:05.666Z,92836.31
2023-01-17T12:54:27.191Z,92845.03
2023-01-17T12:56:07.309Z,92840.06
2023-01-17T12:57:15.979Z,92837.25
2023-01-17T12:58:21.618Z,92835.03
2023-01-17T12:59:37.540Z,92839.63
2023-01-17T13:00:39.578Z,92832.75
2023-01-17T13:01:44.695Z,92830.06
2023-01-17T13:03:08.391Z,92843.31
2023-01-17T13:04:25.708Z,92835.38
2023-01-17T13:05:32.565Z,92831.13
2023-01-17T13:06:52.134Z,92824.03